sensor_id;sensor_type;location;lat;lon;timestamp;P1;durP1;ratioP1;P2;durP2;ratioP2
17917;SDS011;9084;50.956;3.106;2023-03-19T00:00:32;3.03;;;2.72;;
17917;SDS011;9084;50.956;3.106;2023-03-19T00:02:57;3.15;;;2.95;;
17917;SDS011;9084;50.956;3.106;2023-03-19T00:05:23;3.05;;;2.85;;
17917;SDS011;9084;50.956;3.106;2023-03-19T00:07:49;3.28;;;3.05;;
17917;SDS011;9084;50.956;3.106;2023-03-19T00:10:15;3.60;;;3.30;;
17917;SDS011;9084;50.956;3.106;2023-03-19T00:12:40;3.85;;;3.50;;
17917;SDS011;9084;50.956;3.106;2023-03-19T00:15:08;3.80;;;3.50;;
17917;SDS011;9084;50.956;3.106;2023-03-19T00:17:38;3.53;;;3.22;;
17917;SDS011;9084;50.956;3.106;2023-03-19T00:20:04;3.67;;;3.28;;
17917;SDS011;9084;50.956;3.106;2023-03-19T00:22:35;3.97;;;3.67;;
17917;SDS011;9084;50.956;3.106;2023-03-19T00:25:03;4.10;;;3.80;;
17917;SDS011;9084;50.956;3.106;2023-03-19T00:27:29;3.45;;;3.15;;
17917;SDS011;9084;50.956;3.106;2023-03-19T00:29:55;3.30;;;3.00;;
17917;SDS011;9084;50.956;3.106;2023-03-19T00:32:25;3.67;;;3.38;;
17917;SDS011;9084;50.956;3.106;2023-03-19T00:34:53;4.28;;;3.88;;
17917;SDS011;9084;50.956;3.106;2023-03-19T00:37:19;4.78;;;3.75;;
17917;SDS011;9084;50.956;3.106;2023-03-19T00:39:45;4.65;;;4.13;;
17917;SDS011;9084;50.956;3.106;2023-03-19T00:42:11;4.80;;;4.40;;
17917;SDS011;9084;50.956;3.106;2023-03-19T00:44:37;4.07;;;3.75;;
17917;SDS011;9084;50.956;3.106;2023-03-19T00:47:05;4.90;;;4.50;;
17917;SDS011;9084;50.956;3.106;2023-03-19T00:49:31;4.55;;;4.18;;
17917;SDS011;9084;50.956;3.106;2023-03-19T00:51:59;4.53;;;4.10;;
17917;SDS011;9084;50.956;3.106;2023-03-19T00:54:25;4.38;;;4.07;;
17917;SDS011;9084;50.956;3.106;2023-03-19T00:56:53;4.35;;;4.05;;
17917;SDS011;9084;50.956;3.106;2023-03-19T00:59:20;4.65;;;4.25;;
17917;SDS011;9084;50.956;3.106;2023-03-19T01:01:46;5.78;;;3.88;;
17917;SDS011;9084;50.956;3.106;2023-03-19T01:04:12;4.18;;;3.33;;
17917;SDS011;9084;50.956;3.106;2023-03-19T01:06:38;4.85;;;3.45;;
17917;SDS011;9084;50.956;3.106;2023-03-19T01:09:04;5.13;;;3.88;;
17917;SDS011;9084;50.956;3.106;2023-03-19T01:11:30;4.05;;;3.75;;
17917;SDS011;9084;50.956;3.106;2023-03-19T01:13:56;4.93;;;3.40;;
17917;SDS011;9084;50.956;3.106;2023-03-19T01:16:21;4.10;;;3.70;;
17917;SDS011;9084;50.956;3.106;2023-03-19T01:18:49;4.45;;;4.05;;
17917;SDS011;9084;50.956;3.106;2023-03-19T01:21:18;5.32;;;4.20;;
17917;SDS011;9084;50.956;3.106;2023-03-19T01:23:46;5.22;;;4.72;;
17917;SDS011;9084;50.956;3.106;2023-03-19T01:26:14;3.90;;;3.50;;
17917;SDS011;9084;50.956;3.106;2023-03-19T01:28:40;4.68;;;4.28;;
17917;SDS011;9084;50.956;3.106;2023-03-19T01:31:07;4.10;;;3.70;;
17917;SDS011;9084;50.956;3.106;2023-03-19T01:33:33;5.45;;;3.75;;
17917;SDS011;9084;50.956;3.106;2023-03-19T01:35:59;6.13;;;4.60;;
17917;SDS011;9084;50.956;3.106;2023-03-19T01:38:28;4.65;;;4.25;;
17917;SDS011;9084;50.956;3.106;2023-03-19T01:40:56;4.75;;;4.35;;
17917;SDS011;9084;50.956;3.106;2023-03-19T01:43:23;5.05;;;4.55;;
17917;SDS011;9084;50.956;3.106;2023-03-19T01:46:36;4.95;;;4.15;;
17917;SDS011;9084;50.956;3.106;2023-03-19T01:48:38;5.22;;;4.30;;
17917;SDS011;9084;50.956;3.106;2023-03-19T01:51:09;5.90;;;5.32;;
17917;SDS011;9084;50.956;3.106;2023-03-19T01:53:37;5.43;;;4.15;;
17917;SDS011;9084;50.956;3.106;2023-03-19T01:56:08;5.43;;;5.00;;
17917;SDS011;9084;50.956;3.106;2023-03-19T01:58:35;4.75;;;3.65;;
17917;SDS011;9084;50.956;3.106;2023-03-19T02:01:02;4.93;;;4.45;;
17917;SDS011;9084;50.956;3.106;2023-03-19T02:03:28;4.72;;;4.18;;
17917;SDS011;9084;50.956;3.106;2023-03-19T02:05:57;4.90;;;4.35;;
17917;SDS011;9084;50.956;3.106;2023-03-19T02:08:23;6.18;;;4.57;;
17917;SDS011;9084;50.956;3.106;2023-03-19T02:10:50;5.03;;;4.47;;
17917;SDS011;9084;50.956;3.106;2023-03-19T02:13:19;4.70;;;4.30;;
17917;SDS011;9084;50.956;3.106;2023-03-19T02:15:48;4.35;;;4.05;;
17917;SDS011;9084;50.956;3.106;2023-03-19T02:18:17;4.05;;;3.65;;
17917;SDS011;9084;50.956;3.106;2023-03-19T02:26:11;5.77;;;4.80;;
17917;SDS011;9084;50.956;3.106;2023-03-19T02:28:40;5.55;;;5.05;;
17917;SDS011;9084;50.956;3.106;2023-03-19T02:31:08;5.55;;;5.07;;
17917;SDS011;9084;50.956;3.106;2023-03-19T02:33:35;5.22;;;4.75;;
17917;SDS011;9084;50.956;3.106;2023-03-19T02:36:01;5.53;;;4.90;;
17917;SDS011;9084;50.956;3.106;2023-03-19T02:38:32;5.23;;;4.83;;
17917;SDS011;9084;50.956;3.106;2023-03-19T02:41:02;5.53;;;4.95;;
17917;SDS011;9084;50.956;3.106;2023-03-19T02:43:34;6.80;;;5.25;;
17917;SDS011;9084;50.956;3.106;2023-03-19T02:46:05;6.57;;;5.18;;
17917;SDS011;9084;50.956;3.106;2023-03-19T02:48:33;5.90;;;5.30;;
17917;SDS011;9084;50.956;3.106;2023-03-19T02:51:01;5.70;;;5.03;;
17917;SDS011;9084;50.956;3.106;2023-03-19T02:53:33;6.75;;;5.60;;
17917;SDS011;9084;50.956;3.106;2023-03-19T02:55:59;6.90;;;6.13;;
17917;SDS011;9084;50.956;3.106;2023-03-19T02:58:30;7.37;;;6.17;;
17917;SDS011;9084;50.956;3.106;2023-03-19T03:00:58;6.68;;;6.05;;
17917;SDS011;9084;50.956;3.106;2023-03-19T03:03:26;7.57;;;6.03;;
17917;SDS011;9084;50.956;3.106;2023-03-19T03:05:54;7.00;;;6.30;;
17917;SDS011;9084;50.956;3.106;2023-03-19T03:08:20;7.28;;;6.40;;
17917;SDS011;9084;50.956;3.106;2023-03-19T03:10:46;7.53;;;6.82;;
17917;SDS011;9084;50.956;3.106;2023-03-19T03:13:11;7.85;;;7.07;;
17917;SDS011;9084;50.956;3.106;2023-03-19T03:15:39;8.27;;;6.63;;
17917;SDS011;9084;50.956;3.106;2023-03-19T03:18:07;8.10;;;6.75;;
17917;SDS011;9084;50.956;3.106;2023-03-19T03:20:35;9.52;;;7.28;;
17917;SDS011;9084;50.956;3.106;2023-03-19T03:23:03;8.67;;;7.77;;
17917;SDS011;9084;50.956;3.106;2023-03-19T03:25:29;8.97;;;7.27;;
17917;SDS011;9084;50.956;3.106;2023-03-19T03:27:57;7.47;;;6.78;;
17917;SDS011;9084;50.956;3.106;2023-03-19T03:30:22;7.63;;;6.65;;
17917;SDS011;9084;50.956;3.106;2023-03-19T03:32:50;11.43;;;5.70;;
17917;SDS011;9084;50.956;3.106;2023-03-19T03:35:16;6.88;;;5.38;;
17917;SDS011;9084;50.956;3.106;2023-03-19T03:37:46;7.93;;;5.95;;
17917;SDS011;9084;50.956;3.106;2023-03-19T03:40:15;7.18;;;6.40;;
17917;SDS011;9084;50.956;3.106;2023-03-19T03:42:42;8.20;;;5.82;;
17917;SDS011;9084;50.956;3.106;2023-03-19T03:45:13;6.72;;;4.68;;
17917;SDS011;9084;50.956;3.106;2023-03-19T03:47:41;6.97;;;5.03;;
17917;SDS011;9084;50.956;3.106;2023-03-19T03:50:07;6.53;;;5.00;;
17917;SDS011;9084;50.956;3.106;2023-03-19T03:52:37;5.95;;;5.43;;
17917;SDS011;9084;50.956;3.106;2023-03-19T03:55:04;5.55;;;4.70;;
17917;SDS011;9084;50.956;3.106;2023-03-19T03:57:30;6.82;;;5.90;;
17917;SDS011;9084;50.956;3.106;2023-03-19T03:59:58;5.65;;;5.13;;
17917;SDS011;9084;50.956;3.106;2023-03-19T04:02:24;8.75;;;6.47;;
17917;SDS011;9084;50.956;3.106;2023-03-19T04:04:52;8.52;;;6.07;;
17917;SDS011;9084;50.956;3.106;2023-03-19T04:07:18;8.90;;;5.60;;
17917;SDS011;9084;50.956;3.106;2023-03-19T04:09:44;6.40;;;5.20;;
17917;SDS011;9084;50.956;3.106;2023-03-19T04:12:13;6.05;;;5.45;;
17917;SDS011;9084;50.956;3.106;2023-03-19T04:14:38;8.27;;;5.93;;
17917;SDS011;9084;50.956;3.106;2023-03-19T04:17:07;7.65;;;5.97;;
17917;SDS011;9084;50.956;3.106;2023-03-19T04:19:37;8.93;;;5.00;;
17917;SDS011;9084;50.956;3.106;2023-03-19T04:22:07;5.20;;;4.63;;
17917;SDS011;9084;50.956;3.106;2023-03-19T04:24:35;5.47;;;4.50;;
17917;SDS011;9084;50.956;3.106;2023-03-19T04:27:00;8.25;;;5.13;;
17917;SDS011;9084;50.956;3.106;2023-03-19T04:29:28;5.85;;;5.25;;
17917;SDS011;9084;50.956;3.106;2023-03-19T04:31:57;6.35;;;4.95;;
17917;SDS011;9084;50.956;3.106;2023-03-19T04:34:22;8.23;;;5.70;;
17917;SDS011;9084;50.956;3.106;2023-03-19T04:36:48;6.78;;;5.45;;
17917;SDS011;9084;50.956;3.106;2023-03-19T04:39:14;7.90;;;5.78;;
17917;SDS011;9084;50.956;3.106;2023-03-19T04:41:40;6.82;;;5.38;;
17917;SDS011;9084;50.956;3.106;2023-03-19T04:44:06;8.43;;;5.63;;
17917;SDS011;9084;50.956;3.106;2023-03-19T04:46:32;7.07;;;5.97;;
17917;SDS011;9084;50.956;3.106;2023-03-19T04:48:58;9.52;;;5.65;;
17917;SDS011;9084;50.956;3.106;2023-03-19T04:51:24;7.20;;;6.13;;
17917;SDS011;9084;50.956;3.106;2023-03-19T04:53:52;7.45;;;6.05;;
17917;SDS011;9084;50.956;3.106;2023-03-19T04:56:18;10.85;;;6.80;;
17917;SDS011;9084;50.956;3.106;2023-03-19T04:58:45;9.43;;;5.93;;
17917;SDS011;9084;50.956;3.106;2023-03-19T05:01:10;10.10;;;6.47;;
17917;SDS011;9084;50.956;3.106;2023-03-19T05:03:39;11.55;;;7.03;;
17917;SDS011;9084;50.956;3.106;2023-03-19T05:06:04;13.48;;;7.40;;
17917;SDS011;9084;50.956;3.106;2023-03-19T05:08:33;10.60;;;7.80;;
17917;SDS011;9084;50.956;3.106;2023-03-19T05:11:03;10.55;;;7.55;;
17917;SDS011;9084;50.956;3.106;2023-03-19T05:13:29;11.55;;;8.15;;
17917;SDS011;9084;50.956;3.106;2023-03-19T05:15:57;15.20;;;10.60;;
17917;SDS011;9084;50.956;3.106;2023-03-19T05:18:23;16.80;;;11.77;;
17917;SDS011;9084;50.956;3.106;2023-03-19T05:20:50;17.60;;;11.20;;
17917;SDS011;9084;50.956;3.106;2023-03-19T05:23:18;17.73;;;10.68;;
17917;SDS011;9084;50.956;3.106;2023-03-19T05:25:47;15.07;;;10.07;;
17917;SDS011;9084;50.956;3.106;2023-03-19T05:28:13;14.00;;;9.50;;
17917;SDS011;9084;50.956;3.106;2023-03-19T05:30:39;14.13;;;10.15;;
17917;SDS011;9084;50.956;3.106;2023-03-19T05:33:07;17.70;;;10.57;;
17917;SDS011;9084;50.956;3.106;2023-03-19T05:35:33;14.40;;;10.98;;
17917;SDS011;9084;50.956;3.106;2023-03-19T05:37:59;13.73;;;10.63;;
17917;SDS011;9084;50.956;3.106;2023-03-19T05:40:29;17.83;;;11.65;;
17917;SDS011;9084;50.956;3.106;2023-03-19T05:42:56;14.52;;;9.95;;
17917;SDS011;9084;50.956;3.106;2023-03-19T05:45:24;16.73;;;10.85;;
17917;SDS011;9084;50.956;3.106;2023-03-19T05:47:52;16.23;;;12.68;;
17917;SDS011;9084;50.956;3.106;2023-03-19T05:50:19;20.33;;;11.35;;
17917;SDS011;9084;50.956;3.106;2023-03-19T05:52:46;16.67;;;11.80;;
17917;SDS011;9084;50.956;3.106;2023-03-19T05:55:14;16.38;;;11.20;;
17917;SDS011;9084;50.956;3.106;2023-03-19T05:57:42;18.20;;;10.52;;
17917;SDS011;9084;50.956;3.106;2023-03-19T06:00:11;16.02;;;11.50;;
17917;SDS011;9084;50.956;3.106;2023-03-19T06:02:43;24.92;;;11.75;;
17917;SDS011;9084;50.956;3.106;2023-03-19T06:05:09;16.08;;;9.77;;
17917;SDS011;9084;50.956;3.106;2023-03-19T06:07:36;14.25;;;11.13;;
17917;SDS011;9084;50.956;3.106;2023-03-19T06:10:02;15.70;;;10.13;;
17917;SDS011;9084;50.956;3.106;2023-03-19T06:12:30;15.02;;;10.45;;
17917;SDS011;9084;50.956;3.106;2023-03-19T06:14:58;13.57;;;9.98;;
17917;SDS011;9084;50.956;3.106;2023-03-19T06:17:23;13.70;;;9.95;;
17917;SDS011;9084;50.956;3.106;2023-03-19T06:19:49;16.52;;;9.90;;
17917;SDS011;9084;50.956;3.106;2023-03-19T06:22:15;14.20;;;8.93;;
17917;SDS011;9084;50.956;3.106;2023-03-19T06:24:43;13.35;;;11.00;;
17917;SDS011;9084;50.956;3.106;2023-03-19T06:27:11;13.57;;;10.02;;
17917;SDS011;9084;50.956;3.106;2023-03-19T06:29:36;12.38;;;10.45;;
17917;SDS011;9084;50.956;3.106;2023-03-19T06:32:02;16.60;;;10.93;;
17917;SDS011;9084;50.956;3.106;2023-03-19T06:34:28;13.50;;;9.73;;
17917;SDS011;9084;50.956;3.106;2023-03-19T06:36:56;15.80;;;10.57;;
17917;SDS011;9084;50.956;3.106;2023-03-19T06:39:24;15.88;;;10.95;;
17917;SDS011;9084;50.956;3.106;2023-03-19T06:41:52;16.15;;;10.95;;
17917;SDS011;9084;50.956;3.106;2023-03-19T06:44:18;18.10;;;9.95;;
17917;SDS011;9084;50.956;3.106;2023-03-19T06:46:44;17.90;;;10.50;;
17917;SDS011;9084;50.956;3.106;2023-03-19T06:49:11;16.00;;;12.18;;
17917;SDS011;9084;50.956;3.106;2023-03-19T06:51:42;19.27;;;12.20;;
17917;SDS011;9084;50.956;3.106;2023-03-19T06:54:10;16.30;;;9.82;;
17917;SDS011;9084;50.956;3.106;2023-03-19T06:56:35;19.38;;;10.75;;
17917;SDS011;9084;50.956;3.106;2023-03-19T06:59:01;16.63;;;10.35;;
17917;SDS011;9084;50.956;3.106;2023-03-19T07:01:27;17.58;;;10.60;;
17917;SDS011;9084;50.956;3.106;2023-03-19T07:03:57;17.63;;;11.48;;
17917;SDS011;9084;50.956;3.106;2023-03-19T07:06:25;18.20;;;9.95;;
17917;SDS011;9084;50.956;3.106;2023-03-19T07:08:51;16.67;;;11.48;;
17917;SDS011;9084;50.956;3.106;2023-03-19T07:11:16;15.63;;;9.98;;
17917;SDS011;9084;50.956;3.106;2023-03-19T07:13:45;15.30;;;10.80;;
17917;SDS011;9084;50.956;3.106;2023-03-19T07:16:12;16.13;;;9.98;;
17917;SDS011;9084;50.956;3.106;2023-03-19T07:18:38;16.77;;;10.07;;
17917;SDS011;9084;50.956;3.106;2023-03-19T07:21:04;15.82;;;11.20;;
17917;SDS011;9084;50.956;3.106;2023-03-19T07:23:30;14.45;;;9.15;;
17917;SDS011;9084;50.956;3.106;2023-03-19T07:25:55;15.63;;;9.70;;
17917;SDS011;9084;50.956;3.106;2023-03-19T07:28:21;13.05;;;9.38;;
17917;SDS011;9084;50.956;3.106;2023-03-19T07:30:52;15.60;;;9.63;;
17917;SDS011;9084;50.956;3.106;2023-03-19T07:33:18;16.40;;;9.60;;
17917;SDS011;9084;50.956;3.106;2023-03-19T07:35:45;19.13;;;9.35;;
17917;SDS011;9084;50.956;3.106;2023-03-19T07:38:10;14.23;;;8.60;;
17917;SDS011;9084;50.956;3.106;2023-03-19T07:40:39;14.45;;;9.65;;
17917;SDS011;9084;50.956;3.106;2023-03-19T07:43:09;14.43;;;9.02;;
17917;SDS011;9084;50.956;3.106;2023-03-19T07:45:35;14.10;;;8.95;;
17917;SDS011;9084;50.956;3.106;2023-03-19T07:48:03;13.38;;;8.77;;
17917;SDS011;9084;50.956;3.106;2023-03-19T07:50:31;14.65;;;9.90;;
17917;SDS011;9084;50.956;3.106;2023-03-19T07:52:59;14.35;;;9.85;;
17917;SDS011;9084;50.956;3.106;2023-03-19T07:55:25;15.57;;;10.20;;
17917;SDS011;9084;50.956;3.106;2023-03-19T07:57:55;14.55;;;9.70;;
17917;SDS011;9084;50.956;3.106;2023-03-19T08:00:23;13.15;;;10.43;;
17917;SDS011;9084;50.956;3.106;2023-03-19T08:02:49;16.83;;;9.55;;
17917;SDS011;9084;50.956;3.106;2023-03-19T08:05:17;17.58;;;10.43;;
17917;SDS011;9084;50.956;3.106;2023-03-19T08:07:47;15.18;;;9.52;;
17917;SDS011;9084;50.956;3.106;2023-03-19T08:10:15;15.48;;;9.85;;
17917;SDS011;9084;50.956;3.106;2023-03-19T08:12:41;9.80;;;7.00;;
17917;SDS011;9084;50.956;3.106;2023-03-19T08:15:08;6.18;;;4.20;;
17917;SDS011;9084;50.956;3.106;2023-03-19T08:17:39;5.65;;;4.25;;
17917;SDS011;9084;50.956;3.106;2023-03-19T08:20:14;4.45;;;3.08;;
17917;SDS011;9084;50.956;3.106;2023-03-19T08:22:43;6.18;;;2.53;;
17917;SDS011;9084;50.956;3.106;2023-03-19T08:25:14;5.45;;;2.45;;
17917;SDS011;9084;50.956;3.106;2023-03-19T08:27:40;3.72;;;2.33;;
17917;SDS011;9084;50.956;3.106;2023-03-19T08:30:07;7.07;;;2.13;;
17917;SDS011;9084;50.956;3.106;2023-03-19T08:32:34;5.93;;;3.05;;
17917;SDS011;9084;50.956;3.106;2023-03-19T08:35:02;6.47;;;2.35;;
17917;SDS011;9084;50.956;3.106;2023-03-19T08:37:33;3.65;;;2.00;;
17917;SDS011;9084;50.956;3.106;2023-03-19T08:39:59;5.97;;;2.17;;
17917;SDS011;9084;50.956;3.106;2023-03-19T08:42:27;7.28;;;2.97;;
17917;SDS011;9084;50.956;3.106;2023-03-19T08:44:55;5.10;;;2.58;;
17917;SDS011;9084;50.956;3.106;2023-03-19T08:47:23;3.15;;;2.10;;
17917;SDS011;9084;50.956;3.106;2023-03-19T08:49:51;3.60;;;2.42;;
17917;SDS011;9084;50.956;3.106;2023-03-19T08:52:20;3.50;;;2.55;;
17917;SDS011;9084;50.956;3.106;2023-03-19T08:54:45;4.22;;;2.72;;
17917;SDS011;9084;50.956;3.106;2023-03-19T08:57:13;3.55;;;2.40;;
17917;SDS011;9084;50.956;3.106;2023-03-19T08:59:39;3.47;;;2.78;;
17917;SDS011;9084;50.956;3.106;2023-03-19T09:02:08;4.95;;;2.67;;
17917;SDS011;9084;50.956;3.106;2023-03-19T09:04:36;4.38;;;2.38;;
17917;SDS011;9084;50.956;3.106;2023-03-19T09:07:08;4.45;;;2.30;;
17917;SDS011;9084;50.956;3.106;2023-03-19T09:09:37;4.22;;;3.08;;
17917;SDS011;9084;50.956;3.106;2023-03-19T09:12:04;3.45;;;2.03;;
17917;SDS011;9084;50.956;3.106;2023-03-19T09:14:31;4.18;;;2.33;;
17917;SDS011;9084;50.956;3.106;2023-03-19T09:16:58;4.05;;;2.75;;
17917;SDS011;9084;50.956;3.106;2023-03-19T09:19:23;2.25;;;2.05;;
17917;SDS011;9084;50.956;3.106;2023-03-19T09:21:50;3.50;;;2.22;;
17917;SDS011;9084;50.956;3.106;2023-03-19T09:24:18;2.85;;;2.28;;
17917;SDS011;9084;50.956;3.106;2023-03-19T09:26:46;3.80;;;2.47;;
17917;SDS011;9084;50.956;3.106;2023-03-19T09:29:14;5.07;;;2.97;;
17917;SDS011;9084;50.956;3.106;2023-03-19T09:31:41;4.13;;;2.83;;
17917;SDS011;9084;50.956;3.106;2023-03-19T09:34:06;4.32;;;2.88;;
17917;SDS011;9084;50.956;3.106;2023-03-19T09:36:35;4.53;;;3.10;;
17917;SDS011;9084;50.956;3.106;2023-03-19T09:39:04;5.60;;;3.72;;
17917;SDS011;9084;50.956;3.106;2023-03-19T09:46:44;4.88;;;3.17;;
17917;SDS011;9084;50.956;3.106;2023-03-19T09:49:32;3.63;;;3.13;;
17917;SDS011;9084;50.956;3.106;2023-03-19T09:54:45;5.85;;;4.30;;
17917;SDS011;9084;50.956;3.106;2023-03-19T09:57:18;4.07;;;3.75;;
17917;SDS011;9084;50.956;3.106;2023-03-19T09:59:47;4.30;;;3.90;;
17917;SDS011;9084;50.956;3.106;2023-03-19T10:15:31;2.83;;;1.15;;
17917;SDS011;9084;50.956;3.106;2023-03-19T10:18:06;2.78;;;1.35;;
17917;SDS011;9084;50.956;3.106;2023-03-19T10:23:29;2.03;;;1.23;;
17917;SDS011;9084;50.956;3.106;2023-03-19T10:25:59;1.80;;;0.88;;
17917;SDS011;9084;50.956;3.106;2023-03-19T10:28:28;5.63;;;1.33;;
17917;SDS011;9084;50.956;3.106;2023-03-19T10:31:41;2.28;;;1.20;;
17917;SDS011;9084;50.956;3.106;2023-03-19T10:36:42;1.63;;;1.13;;
17917;SDS011;9084;50.956;3.106;2023-03-19T10:39:10;1.77;;;1.30;;
17917;SDS011;9084;50.956;3.106;2023-03-19T10:41:48;6.15;;;1.83;;
17917;SDS011;9084;50.956;3.106;2023-03-19T10:44:29;3.15;;;1.35;;
17917;SDS011;9084;50.956;3.106;2023-03-19T10:47:03;3.25;;;1.60;;
17917;SDS011;9084;50.956;3.106;2023-03-19T10:49:40;2.85;;;1.52;;
17917;SDS011;9084;50.956;3.106;2023-03-19T10:52:40;2.65;;;1.70;;
17917;SDS011;9084;50.956;3.106;2023-03-19T10:55:23;4.90;;;1.50;;
17917;SDS011;9084;50.956;3.106;2023-03-19T10:57:55;4.88;;;1.58;;
17917;SDS011;9084;50.956;3.106;2023-03-19T11:00:29;6.32;;;2.03;;
17917;SDS011;9084;50.956;3.106;2023-03-19T11:03:01;6.25;;;2.60;;
17917;SDS011;9084;50.956;3.106;2023-03-19T11:05:31;5.68;;;1.92;;
17917;SDS011;9084;50.956;3.106;2023-03-19T11:10:27;3.72;;;2.05;;
17917;SDS011;9084;50.956;3.106;2023-03-19T11:13:02;8.07;;;2.28;;
17917;SDS011;9084;50.956;3.106;2023-03-19T11:15:34;8.15;;;2.65;;
17917;SDS011;9084;50.956;3.106;2023-03-19T11:18:06;6.75;;;2.75;;
17917;SDS011;9084;50.956;3.106;2023-03-19T11:21:04;4.30;;;2.47;;
17917;SDS011;9084;50.956;3.106;2023-03-19T11:23:57;5.78;;;2.35;;
17917;SDS011;9084;50.956;3.106;2023-03-19T11:26:25;4.40;;;2.30;;
17917;SDS011;9084;50.956;3.106;2023-03-19T11:28:52;3.97;;;2.60;;
17917;SDS011;9084;50.956;3.106;2023-03-19T11:31:39;5.30;;;2.50;;
17917;SDS011;9084;50.956;3.106;2023-03-19T11:37:05;6.45;;;2.40;;
17917;SDS011;9084;50.956;3.106;2023-03-19T11:39:36;2.17;;;1.55;;
17917;SDS011;9084;50.956;3.106;2023-03-19T11:47:57;3.75;;;2.30;;
17917;SDS011;9084;50.956;3.106;2023-03-19T11:50:39;12.35;;;3.20;;
17917;SDS011;9084;50.956;3.106;2023-03-19T11:53:28;6.32;;;2.13;;
17917;SDS011;9084;50.956;3.106;2023-03-19T12:07:57;4.93;;;2.20;;
17917;SDS011;9084;50.956;3.106;2023-03-19T12:12:25;11.63;;;9.32;;
17917;SDS011;9084;50.956;3.106;2023-03-19T12:17:57;4.50;;;2.30;;
17917;SDS011;9084;50.956;3.106;2023-03-19T12:28:57;4.35;;;2.28;;
17917;SDS011;9084;50.956;3.106;2023-03-19T12:39:37;4.60;;;2.40;;
17917;SDS011;9084;50.956;3.106;2023-03-19T12:42:11;5.28;;;2.42;;
17917;SDS011;9084;50.956;3.106;2023-03-19T12:44:41;5.68;;;2.63;;
17917;SDS011;9084;50.956;3.106;2023-03-19T12:47:15;3.40;;;2.15;;
17917;SDS011;9084;50.956;3.106;2023-03-19T12:50:12;2.13;;;1.92;;
17917;SDS011;9084;50.956;3.106;2023-03-19T12:52:42;3.22;;;2.10;;
17917;SDS011;9084;50.956;3.106;2023-03-19T13:03:17;6.00;;;4.70;;
17917;SDS011;9084;50.956;3.106;2023-03-19T13:06:05;4.53;;;2.60;;
17917;SDS011;9084;50.956;3.106;2023-03-19T13:08:42;3.67;;;2.10;;
17917;SDS011;9084;50.956;3.106;2023-03-19T13:11:16;3.78;;;1.88;;
17917;SDS011;9084;50.956;3.106;2023-03-19T13:13:55;5.97;;;1.70;;
17917;SDS011;9084;50.956;3.106;2023-03-19T13:21:39;3.15;;;2.22;;
17917;SDS011;9084;50.956;3.106;2023-03-19T13:26:50;3.75;;;2.00;;
17917;SDS011;9084;50.956;3.106;2023-03-19T13:29:21;3.67;;;2.28;;
17917;SDS011;9084;50.956;3.106;2023-03-19T13:31:50;3.83;;;2.40;;
17917;SDS011;9084;50.956;3.106;2023-03-19T13:36:58;5.40;;;2.60;;
17917;SDS011;9084;50.956;3.106;2023-03-19T13:39:29;7.00;;;2.53;;
17917;SDS011;9084;50.956;3.106;2023-03-19T13:52:46;2.75;;;1.63;;
17917;SDS011;9084;50.956;3.106;2023-03-19T13:58:41;2.80;;;1.48;;
17917;SDS011;9084;50.956;3.106;2023-03-19T14:01:08;6.20;;;1.40;;
17917;SDS011;9084;50.956;3.106;2023-03-19T14:09:00;3.08;;;1.50;;
17917;SDS011;9084;50.956;3.106;2023-03-19T14:11:29;4.97;;;2.20;;
17917;SDS011;9084;50.956;3.106;2023-03-19T14:14:00;5.93;;;1.95;;
17917;SDS011;9084;50.956;3.106;2023-03-19T14:16:33;2.40;;;1.45;;
17917;SDS011;9084;50.956;3.106;2023-03-19T14:19:03;1.70;;;1.20;;
17917;SDS011;9084;50.956;3.106;2023-03-19T14:27:16;4.53;;;2.45;;
17917;SDS011;9084;50.956;3.106;2023-03-19T14:29:49;4.63;;;2.63;;
17917;SDS011;9084;50.956;3.106;2023-03-19T14:32:18;3.47;;;2.08;;
17917;SDS011;9084;50.956;3.106;2023-03-19T14:34:52;7.82;;;2.30;;
17917;SDS011;9084;50.956;3.106;2023-03-19T14:40:11;3.47;;;2.17;;
17917;SDS011;9084;50.956;3.106;2023-03-19T14:50:55;3.97;;;2.25;;
17917;SDS011;9084;50.956;3.106;2023-03-19T14:53:33;4.13;;;1.70;;
17917;SDS011;9084;50.956;3.106;2023-03-19T14:56:13;6.40;;;2.60;;
17917;SDS011;9084;50.956;3.106;2023-03-19T14:58:46;2.78;;;1.85;;
17917;SDS011;9084;50.956;3.106;2023-03-19T15:01:17;4.20;;;2.17;;
17917;SDS011;9084;50.956;3.106;2023-03-19T15:03:44;5.13;;;2.10;;
17917;SDS011;9084;50.956;3.106;2023-03-19T15:06:13;7.22;;;2.80;;
17917;SDS011;9084;50.956;3.106;2023-03-19T15:08:42;3.80;;;2.20;;
17917;SDS011;9084;50.956;3.106;2023-03-19T15:13:52;6.20;;;2.50;;
17917;SDS011;9084;50.956;3.106;2023-03-19T15:18:52;3.70;;;2.15;;
17917;SDS011;9084;50.956;3.106;2023-03-19T15:21:18;2.55;;;2.20;;
17917;SDS011;9084;50.956;3.106;2023-03-19T15:23:49;5.18;;;1.90;;
17917;SDS011;9084;50.956;3.106;2023-03-19T15:26:18;4.25;;;2.08;;
17917;SDS011;9084;50.956;3.106;2023-03-19T15:28:54;4.10;;;1.98;;
17917;SDS011;9084;50.956;3.106;2023-03-19T15:31:22;7.25;;;2.13;;
17917;SDS011;9084;50.956;3.106;2023-03-19T15:37:03;4.45;;;2.30;;
17917;SDS011;9084;50.956;3.106;2023-03-19T15:39:48;4.68;;;2.67;;
17917;SDS011;9084;50.956;3.106;2023-03-19T15:42:19;3.55;;;2.22;;
17917;SDS011;9084;50.956;3.106;2023-03-19T15:44:54;5.88;;;2.50;;
17917;SDS011;9084;50.956;3.106;2023-03-19T15:47:32;8.90;;;2.42;;
17917;SDS011;9084;50.956;3.106;2023-03-19T15:50:02;5.38;;;1.48;;
17917;SDS011;9084;50.956;3.106;2023-03-19T15:52:37;6.05;;;1.98;;
17917;SDS011;9084;50.956;3.106;2023-03-19T15:55:05;5.68;;;2.42;;
17917;SDS011;9084;50.956;3.106;2023-03-19T15:57:34;5.82;;;1.80;;
17917;SDS011;9084;50.956;3.106;2023-03-19T16:00:05;5.22;;;2.13;;
17917;SDS011;9084;50.956;3.106;2023-03-19T16:02:38;3.35;;;1.50;;
17917;SDS011;9084;50.956;3.106;2023-03-19T16:07:53;4.35;;;1.85;;
17917;SDS011;9084;50.956;3.106;2023-03-19T16:10:43;3.78;;;1.83;;
17917;SDS011;9084;50.956;3.106;2023-03-19T16:13:30;5.47;;;2.50;;
17917;SDS011;9084;50.956;3.106;2023-03-19T16:18:42;3.50;;;1.77;;
17917;SDS011;9084;50.956;3.106;2023-03-19T16:21:20;4.38;;;1.80;;
17917;SDS011;9084;50.956;3.106;2023-03-19T16:23:59;3.72;;;2.30;;
17917;SDS011;9084;50.956;3.106;2023-03-19T16:32:02;3.20;;;1.67;;
17917;SDS011;9084;50.956;3.106;2023-03-19T16:35:01;1.75;;;1.48;;
17917;SDS011;9084;50.956;3.106;2023-03-19T16:37:51;2.97;;;1.65;;
17917;SDS011;9084;50.956;3.106;2023-03-19T16:42:48;3.17;;;1.70;;
17917;SDS011;9084;50.956;3.106;2023-03-19T16:47:56;4.72;;;2.67;;
17917;SDS011;9084;50.956;3.106;2023-03-19T16:50:27;5.75;;;2.70;;
17917;SDS011;9084;50.956;3.106;2023-03-19T16:52:55;4.03;;;2.00;;
17917;SDS011;9084;50.956;3.106;2023-03-19T16:55:26;3.15;;;1.90;;
17917;SDS011;9084;50.956;3.106;2023-03-19T16:57:59;2.58;;;1.40;;
17917;SDS011;9084;50.956;3.106;2023-03-19T17:00:30;2.55;;;1.25;;
17917;SDS011;9084;50.956;3.106;2023-03-19T17:02:59;3.92;;;1.75;;
17917;SDS011;9084;50.956;3.106;2023-03-19T17:05:30;1.17;;;1.08;;
17917;SDS011;9084;50.956;3.106;2023-03-19T17:07:55;2.30;;;1.50;;
17917;SDS011;9084;50.956;3.106;2023-03-19T17:10:21;5.03;;;2.22;;
17917;SDS011;9084;50.956;3.106;2023-03-19T17:12:51;2.90;;;1.70;;
17917;SDS011;9084;50.956;3.106;2023-03-19T17:18:02;3.30;;;1.98;;
17917;SDS011;9084;50.956;3.106;2023-03-19T17:20:35;2.05;;;1.73;;
17917;SDS011;9084;50.956;3.106;2023-03-19T17:23:08;4.45;;;2.00;;
17917;SDS011;9084;50.956;3.106;2023-03-19T17:25:39;7.05;;;2.75;;
17917;SDS011;9084;50.956;3.106;2023-03-19T17:28:05;5.82;;;2.25;;
17917;SDS011;9084;50.956;3.106;2023-03-19T17:30:31;3.30;;;2.17;;
17917;SDS011;9084;50.956;3.106;2023-03-19T17:32:57;3.85;;;2.20;;
17917;SDS011;9084;50.956;3.106;2023-03-19T17:35:23;3.95;;;2.33;;
17917;SDS011;9084;50.956;3.106;2023-03-19T17:37:52;4.88;;;3.10;;
17917;SDS011;9084;50.956;3.106;2023-03-19T17:40:22;6.07;;;2.00;;
17917;SDS011;9084;50.956;3.106;2023-03-19T17:42:51;5.32;;;1.80;;
17917;SDS011;9084;50.956;3.106;2023-03-19T17:45:18;4.18;;;1.58;;
17917;SDS011;9084;50.956;3.106;2023-03-19T17:47:52;2.70;;;1.20;;
17917;SDS011;9084;50.956;3.106;2023-03-19T17:50:22;4.40;;;1.75;;